Wales, Alaska
Current Conditions -  °F | °C
As of 12:58 PM on Sunday 23 Nov 2014 (Local Time) from PAIW Reporting Station
Overcast Overcast  
Wind Chill:   Ceiling: 4300
Heat Index: 18°   Visibility: 10mi
Dew Point: 10°   Wind: 16mph
Humidity: 71%   Direction: 60°ENE
Pressure: 29.72"   Gusts: NA
Location:  65.62°N, 168.08°W
Report Text: PAIW 232158Z AUTO 06014KT 10SM OVC043 M08/M12 A2972 RMK AO2 SLP064 T10781122 FZRANO
Loading
Personal Weather Stations






























Interactive Weather Map New forecast layout! Learn more

10-Day Weather Forecast

Advertisements
Track Severe Weather on mobile